Time;durP1;ratioP1;P1;durP2;ratioP2;P2;SDS_P1;SDS_P2;PMS_P1;PMS_P2;Temp;Humidity;BMP_temperature;BMP_pressure;BME280_temperature;BME280_humidity;BME280_pressure;Samples;Min_cycle;Max_cycle;Signal;HPM_P1;HPM_P2
2022/08/23 00:02:07;;;;;;;2.45;1.35;;;;;;;19.88;72.35;101350.72;1701827;83;21416;-88
2022/08/23 00:04:39;;;;;;;3.90;1.55;;;;;;;19.76;72.40;101338.31;1716469;83;21059;-85
2022/08/23 00:07:08;;;;;;;3.52;1.42;;;;;;;19.76;72.40;101338.31;1715404;82;21010;-85
2022/08/23 00:09:35;;;;;;;4.10;1.47;;;;;;;19.88;72.48;101358.73;1713599;83;21035;-84
2022/08/23 00:12:18;;;;;;;5.08;1.57;;;;;;;19.88;72.75;101344.50;1707511;83;21733;-85
2022/08/23 00:14:50;;;;;;;5.42;1.50;;;;;;;19.88;72.75;101344.50;1701777;83;21227;-85
2022/08/23 00:17:17;;;;;;;3.55;1.60;;;;;;;19.88;72.77;101345.37;1711840;82;21019;-84
2022/08/23 00:19:44;;;;;;;6.28;2.50;;;;;;;19.89;72.92;101346.27;1710847;83;21346;-84
2022/08/23 00:22:11;;;;;;;4.40;1.80;;;;;;;19.91;73.07;101347.14;1722535;83;21477;-85
2022/08/23 00:24:39;;;;;;;4.45;1.80;;;;;;;19.93;73.22;101340.00;1710063;83;21791;-89
2022/08/23 00:27:11;;;;;;;5.87;1.77;;;;;;;19.93;73.27;101335.99;1720692;83;21875;-90
2022/08/23 00:29:48;;;;;;;6.15;1.70;;;;;;;19.93;73.36;101332.90;1711860;83;21014;-90
2022/08/23 00:32:23;;;;;;;4.08;2.00;;;;;;;19.93;73.44;101339.58;1721272;83;21019;-90
2022/08/23 00:34:49;;;;;;;3.87;1.60;;;;;;;19.92;73.49;101340.91;1711039;82;20995;-90
2022/08/23 00:37:16;;;;;;;3.33;2.08;;;;;;;19.90;73.57;101332.90;1696068;84;21741;-90
2022/08/23 00:39:43;;;;;;;6.30;3.17;;;;;;;19.88;73.67;101336.48;1733485;81;20983;-89
2022/08/23 00:47:49;;;;;;;6.60;2.02;;;;;;;19.85;74.09;101329.81;1718600;83;21625;-89
2022/08/23 00:50:30;;;;;;;5.60;1.80;;;;;;;19.84;74.26;101318.66;1647597;84;21921;-90
2022/08/23 00:53:17;;;;;;;9.70;1.60;;;;;;;19.84;74.26;101318.66;1724912;83;21023;-90
2022/08/23 00:55:45;;;;;;;4.12;1.70;;;;;;;19.83;74.40;101319.58;1725348;83;20965;-90
2022/08/23 00:58:13;;;;;;;9.43;2.45;;;;;;;19.82;74.48;101326.71;1706375;83;21524;-90
2022/08/23 01:03:44;;;;;;;4.75;2.47;;;;;;;19.77;74.74;101328.50;1726228;83;21778;-90
2022/08/23 01:06:36;;;;;;;6.92;2.45;;;;;;;19.77;74.89;101324.50;1726355;83;21869;-90
2022/08/23 01:09:11;;;;;;;5.58;2.10;;;;;;;19.76;74.95;101325.37;1719153;81;20962;-90
2022/08/23 01:11:42;;;;;;;5.62;2.00;;;;;;;19.77;75.08;101324.50;1718394;83;21500;-90
2022/08/23 01:14:13;;;;;;;6.55;2.10;;;;;;;19.76;75.22;101324.95;1713572;83;21027;-91
2022/08/23 01:16:51;;;;;;;7.65;2.95;;;;;;;19.77;75.35;101317.36;1668473;83;22582;-90
2022/08/23 01:19:23;;;;;;;5.83;2.10;;;;;;;19.78;75.43;101323.59;1723674;83;21169;-88
2022/08/23 01:21:55;;;;;;;8.20;2.25;;;;;;;19.79;75.56;101319.58;1695515;84;21039;-90
2022/08/23 01:24:22;;;;;;;5.70;2.33;;;;;;;19.81;75.59;101327.14;1726307;82;21015;-89
2022/08/23 01:26:49;;;;;;;4.55;2.15;;;;;;;19.85;75.72;101325.80;1678298;84;21007;-90
2022/08/23 01:29:16;;;;;;;6.45;2.50;;;;;;;19.87;75.80;101327.56;1707850;83;22561;-90
2022/08/23 01:31:42;;;;;;;10.68;2.15;;;;;;;19.89;75.89;101331.11;1640920;86;21032;-90
2022/08/23 01:34:11;;;;;;;13.10;2.87;;;;;;;19.94;75.98;101335.99;1723804;83;20995;-90
2022/08/23 01:36:38;;;;;;;10.35;2.60;;;;;;;20.03;76.13;101331.06;1711094;83;21032;-90
2022/08/23 01:39:08;;;;;;;10.35;2.65;;;;;;;20.03;76.13;101331.06;1697127;83;21026;-86
2022/08/23 01:41:33;;;;;;;7.72;2.35;;;;;;;20.07;76.09;101332.83;1696562;83;21751;-86
2022/08/23 01:44:26;;;;;;;8.95;2.45;;;;;;;20.12;76.12;101340.80;1719020;83;21009;-86
2022/08/23 01:46:53;;;;;;;6.85;2.70;;;;;;;20.05;76.16;101327.06;1726319;82;21019;-89
2022/08/23 01:49:20;;;;;;;10.70;3.10;;;;;;;20.24;76.32;101342.09;1721948;83;21519;-89
2022/08/23 01:51:46;;;;;;;7.12;2.80;;;;;;;20.17;76.24;101316.28;1697159;83;21532;-86
2022/08/23 01:54:13;;;;;;;5.35;2.70;;;;;;;20.17;76.24;101316.28;1696861;83;21747;-86
2022/08/23 01:56:40;;;;;;;6.17;3.20;;;;;;;20.29;76.34;101338.95;1696634;83;20991;-86
2022/08/23 01:59:08;;;;;;;4.75;2.37;;;;;;;20.19;76.37;101311.36;1696987;83;21002;-85
2022/08/23 02:01:34;;;;;;;7.17;2.60;;;;;;;20.33;76.43;101330.00;1697076;83;21073;-89
2022/08/23 02:04:01;;;;;;;7.20;2.45;;;;;;;20.35;76.45;101332.68;1681684;84;21038;-90
2022/08/23 02:06:29;;;;;;;8.55;2.77;;;;;;;20.30;76.36;101313.97;1717759;83;22559;-90
2022/08/23 02:09:01;;;;;;;5.33;2.92;;;;;;;20.38;76.60;101333.55;1697291;83;21121;-88
2022/08/23 02:11:34;;;;;;;12.00;2.70;;;;;;;20.32;76.78;101317.98;1693396;83;21043;-91
2022/08/23 02:14:08;;;;;;;8.20;3.30;;;;;;;20.35;76.92;101328.20;1695663;83;20991;-90
2022/08/23 02:16:38;;;;;;;6.92;2.90;;;;;;;20.37;77.05;101326.41;1709107;83;20999;-85
2022/08/23 02:19:08;;;;;;;9.85;2.65;;;;;;;20.38;77.10;101329.54;1685644;83;22490;-86
2022/08/23 02:21:35;;;;;;;5.70;2.75;;;;;;;20.33;77.20;101323.32;1687001;83;20991;-90
2022/08/23 02:24:12;;;;;;;9.50;3.77;;;;;;;20.37;77.56;101328.20;1713560;83;21035;-90
2022/08/23 02:26:41;;;;;;;8.10;2.80;;;;;;;20.37;77.56;101328.20;1706187;83;20982;-90
2022/08/23 02:29:08;;;;;;;9.55;2.67;;;;;;;20.33;77.52;101332.68;1667762;83;21009;-90
2022/08/23 02:31:35;;;;;;;6.30;2.62;;;;;;;20.30;77.72;101336.70;1674859;83;21687;-91
2022/08/23 02:34:02;;;;;;;4.75;2.50;;;;;;;20.22;77.98;101326.97;1695479;83;21015;-91
2022/08/23 02:36:29;;;;;;;6.62;2.98;;;;;;;20.22;77.98;101344.34;1702457;83;21000;-90
2022/08/23 02:38:55;;;;;;;7.22;2.85;;;;;;;20.15;78.38;101333.66;1702541;83;21019;-90
2022/08/23 02:41:22;;;;;;;6.58;2.65;;;;;;;20.08;78.52;101333.24;1704550;83;21016;-86
2022/08/23 02:43:52;;;;;;;6.95;2.75;;;;;;;20.08;78.52;101333.24;1694029;82;21790;-86
2022/08/23 02:46:20;;;;;;;6.47;2.70;;;;;;;20.06;78.64;101333.70;1694586;83;21007;-90
2022/08/23 02:48:47;;;;;;;5.67;2.37;;;;;;;20.04;78.81;101332.83;1715227;83;21062;-91
2022/08/23 02:51:15;;;;;;;9.25;2.58;;;;;;;19.86;78.97;101303.52;1687871;83;21014;-86
2022/08/23 02:53:42;;;;;;;5.22;2.85;;;;;;;19.93;79.13;101325.30;1662179;85;21066;-86
2022/08/23 02:56:09;;;;;;;7.42;2.72;;;;;;;19.88;79.28;101321.33;1688970;83;21743;-86
2022/08/23 02:58:36;;;;;;;5.37;2.40;;;;;;;19.84;79.55;101329.35;1701848;82;21046;-89
2022/08/23 03:01:02;;;;;;;9.33;2.92;;;;;;;19.84;79.55;101329.35;1706210;83;21002;-90
2022/08/23 03:03:29;;;;;;;5.55;2.60;;;;;;;19.83;79.75;101335.15;1662563;85;21013;-89
2022/08/23 03:05:56;;;;;;;6.75;3.25;;;;;;;19.81;79.99;101333.81;1628084;87;21106;-90
2022/08/23 03:08:23;;;;;;;7.72;2.85;;;;;;;19.78;80.12;101331.17;1676666;85;22581;-90
2022/08/23 03:10:51;;;;;;;9.50;3.17;;;;;;;19.77;80.26;101332.52;1659637;86;21019;-86
2022/08/23 03:13:19;;;;;;;11.90;3.65;;;;;;;19.77;80.47;101340.06;1697079;84;20995;-86
2022/08/23 03:15:46;;;;;;;7.12;3.15;;;;;;;19.75;80.74;101338.31;1670973;84;21075;-85
2022/08/23 03:18:13;;;;;;;6.95;3.20;;;;;;;19.77;80.90;101346.75;1670974;84;21502;-86
2022/08/23 03:20:40;;;;;;;5.53;3.00;;;;;;;19.78;80.97;101339.19;1698171;84;21953;-86
2022/08/23 03:23:09;;;;;;;8.28;3.05;;;;;;;19.83;81.05;101341.83;1692381;84;21018;-86
2022/08/23 03:25:36;;;;;;;10.00;3.15;;;;;;;19.85;81.14;101341.38;1674088;85;21010;-85
2022/08/23 03:28:26;;;;;;;9.48;3.50;;;;;;;19.89;81.22;101349.81;1676477;84;21511;-90
2022/08/23 03:30:55;;;;;;;7.72;3.00;;;;;;;19.91;81.32;101353.36;1698610;84;21533;-88
2022/08/23 03:33:22;;;;;;;9.95;4.90;;;;;;;19.97;81.45;101359.13;1683709;83;22540;-85
2022/08/23 03:35:49;;;;;;;9.63;5.03;;;;;;;20.01;81.46;101354.23;1671484;84;21022;-87
2022/08/23 03:38:16;;;;;;;9.45;4.00;;;;;;;20.05;81.50;101357.33;1671962;84;20996;-89
2022/08/23 03:40:42;;;;;;;9.60;3.58;;;;;;;20.11;81.59;101369.32;1692186;84;21652;-86
2022/08/23 03:43:10;;;;;;;10.88;3.85;;;;;;;20.17;81.62;101367.95;1672305;84;21027;-86
2022/08/23 03:45:36;;;;;;;10.65;3.37;;;;;;;20.21;81.66;101364.81;1672951;84;21774;-90
2022/08/23 03:48:04;;;;;;;7.78;3.25;;;;;;;20.31;81.64;101372.33;1691474;83;21453;-86
2022/08/23 03:50:31;;;;;;;8.20;3.50;;;;;;;20.23;81.35;101348.31;1692430;84;20992;-86
2022/08/23 03:52:57;;;;;;;14.13;4.00;;;;;;;20.30;81.59;101354.08;1694315;84;21008;-86
2022/08/23 03:55:24;;;;;;;8.60;3.72;;;;;;;20.39;81.65;101372.73;1685161;84;21043;-89
2022/08/23 03:57:50;;;;;;;8.83;3.60;;;;;;;20.44;81.71;101375.41;1674274;84;21718;-89
2022/08/23 04:00:17;;;;;;;8.40;3.83;;;;;;;20.50;81.75;101367.34;1663630;83;21049;-89
2022/08/23 04:02:45;;;;;;;12.15;3.60;;;;;;;20.53;81.69;101359.73;1683381;84;21000;-88
2022/08/23 04:05:13;;;;;;;10.23;4.20;;;;;;;20.55;81.81;101357.51;1701030;84;20968;-84
2022/08/23 04:07:40;;;;;;;8.40;3.65;;;;;;;20.49;81.83;101341.48;1679654;84;21032;-88
2022/08/23 04:10:12;;;;;;;13.93;3.27;;;;;;;20.53;81.86;101343.69;1664286;85;21750;-89
2022/08/23 04:12:37;;;;;;;11.05;3.80;;;;;;;20.60;81.94;101356.16;1694253;83;21509;-89
2022/08/23 04:15:05;;;;;;;8.38;3.80;;;;;;;20.61;81.92;101353.94;1684570;83;21011;-86
2022/08/23 04:17:32;;;;;;;13.15;4.80;;;;;;;20.61;82.05;101349.92;1702921;83;21213;-88
2022/08/23 04:19:58;;;;;;;9.33;4.22;;;;;;;20.63;82.14;101356.15;1691345;84;21496;-85
2022/08/23 04:22:25;;;;;;;11.60;4.87;;;;;;;20.67;82.18;101355.22;1690896;84;21770;-86
2022/08/23 04:24:52;;;;;;;9.83;4.80;;;;;;;20.69;82.23;101357.89;1703698;83;21042;-86
2022/08/23 04:27:19;;;;;;;13.18;5.10;;;;;;;20.71;82.23;101348.95;1697984;84;20958;-87
2022/08/23 04:29:52;;;;;;;7.92;4.55;;;;;;;20.74;82.32;101350.27;1728378;81;21188;-87
2022/08/23 04:32:19;;;;;;;13.40;4.80;;;;;;;20.75;82.24;101345.80;1698440;84;21496;-88
2022/08/23 04:34:47;;;;;;;9.03;4.03;;;;;;;20.75;82.30;101351.16;1700750;82;22543;-84
2022/08/23 04:37:15;;;;;;;7.22;3.95;;;;;;;20.78;82.35;101345.79;1706896;83;21031;-84
2022/08/23 04:42:27;;;;;;;6.47;3.58;;;;;;;20.75;82.42;101339.11;1684029;83;21445;-86
2022/08/23 04:44:53;;;;;;;9.98;3.65;;;;;;;20.83;82.40;101354.64;1685664;83;20976;-87
2022/08/23 04:47:21;;;;;;;11.08;4.22;;;;;;;20.80;82.66;101349.77;1697538;84;21735;-85
2022/08/23 04:49:47;;;;;;;11.22;4.25;;;;;;;20.69;82.45;101336.03;1692363;84;20988;-86
2022/08/23 04:52:16;;;;;;;7.45;4.30;;;;;;;20.74;82.56;101354.71;1692033;83;21014;-86
2022/08/23 04:54:43;;;;;;;8.65;3.90;;;;;;;20.74;82.71;101356.96;1679479;84;21020;-89
2022/08/23 04:57:10;;;;;;;8.98;4.12;;;;;;;20.76;82.66;101352.48;1703346;84;20992;-87
2022/08/23 04:59:37;;;;;;;11.83;5.03;;;;;;;20.79;82.57;101356.91;1655060;86;21754;-86
2022/08/23 05:02:04;;;;;;;10.43;5.35;;;;;;;20.83;82.70;101359.99;1691395;82;20960;-89
2022/08/23 05:04:31;;;;;;;10.60;4.78;;;;;;;20.86;82.66;101355.09;1706241;83;21032;-87
2022/08/23 05:06:58;;;;;;;9.95;4.33;;;;;;;20.87;82.65;101344.80;1701975;82;21066;-86
2022/08/23 05:09:25;;;;;;;9.63;4.40;;;;;;;20.89;82.72;101352.37;1712594;82;21078;-88
2022/08/23 05:11:52;;;;;;;10.85;4.60;;;;;;;20.89;82.67;101350.60;1698545;84;21867;-88
2022/08/23 05:14:20;;;;;;;6.58;3.80;;;;;;;20.94;82.75;101357.24;1680709;84;21000;-88
2022/08/23 05:16:47;;;;;;;7.00;4.00;;;;;;;20.94;82.65;101355.45;1681413;84;21502;-87
2022/08/23 05:19:13;;;;;;;10.53;4.20;;;;;;;20.96;82.60;101360.79;1684421;82;20995;-88
2022/08/23 05:21:44;;;;;;;9.00;4.78;;;;;;;20.94;82.75;101367.48;1706948;83;20998;-87
2022/08/23 05:24:12;;;;;;;7.97;4.62;;;;;;;20.93;82.74;101364.39;1702006;84;21790;-89
2022/08/23 05:26:38;;;;;;;10.08;5.17;;;;;;;20.97;82.90;101354.09;1669502;84;21471;-88
2022/08/23 05:29:05;;;;;;;11.12;6.22;;;;;;;21.08;83.07;101355.34;1677845;84;21030;-87
2022/08/23 05:31:32;;;;;;;11.57;6.65;;;;;;;21.16;82.93;101358.83;1671998;84;20983;-87
2022/08/23 05:34:04;;;;;;;11.75;5.92;;;;;;;21.20;82.80;101350.32;1673186;84;21527;-87
2022/08/23 05:36:30;;;;;;;15.63;5.92;;;;;;;21.23;82.82;101346.29;1639788;87;21685;-88
2022/08/23 05:38:57;;;;;;;13.20;8.23;;;;;;;21.28;82.78;101354.26;1717462;83;21014;-86
2022/08/23 05:41:26;;;;;;;14.60;7.70;;;;;;;21.27;82.68;101357.40;1708426;83;21535;-86
2022/08/23 05:43:53;;;;;;;12.40;6.55;;;;;;;21.32;82.73;101355.58;1724420;83;20934;-88
2022/08/23 05:46:20;;;;;;;10.05;6.45;;;;;;;21.37;82.67;101366.22;1719767;83;21074;-88
2022/08/23 05:48:49;;;;;;;14.10;6.50;;;;;;;21.43;82.80;101367.95;1699819;83;21750;-87
2022/08/23 05:51:23;;;;;;;11.08;6.45;;;;;;;21.49;82.63;101369.25;1724818;83;20954;-88
2022/08/23 05:53:51;;;;;;;11.60;4.30;;;;;;;21.51;82.51;101371.46;1724787;83;20987;-89
2022/08/23 05:56:30;;;;;;;9.63;4.33;;;;;;;21.57;82.63;101371.84;1719209;83;21026;-87
2022/08/23 05:59:01;;;;;;;10.20;4.45;;;;;;;21.63;82.53;101365.11;1714288;83;21010;-88
2022/08/23 06:01:28;;;;;;;16.05;4.22;;;;;;;21.76;82.68;101366.74;1724446;83;22464;-88
2022/08/23 06:03:57;;;;;;;13.93;4.58;;;;;;;22.00;82.63;101367.33;1673000;83;20968;-91
2022/08/23 06:06:24;;;;;;;8.98;3.70;;;;;;;22.25;82.43;101365.24;1696066;83;21508;-89
2022/08/23 06:08:50;;;;;;;10.72;3.90;;;;;;;22.41;81.82;101363.25;1723886;83;21484;-88
2022/08/23 06:11:21;;;;;;;10.95;3.62;;;;;;;22.45;81.41;101365.88;1727510;81;21050;-86
2022/08/23 06:13:52;;;;;;;10.55;3.67;;;;;;;22.56;81.53;101369.76;1725867;83;21736;-88
2022/08/23 06:16:23;;;;;;;9.08;3.72;;;;;;;22.78;81.43;101371.63;1708873;82;21020;-90
2022/08/23 06:18:52;;;;;;;8.60;2.87;;;;;;;22.97;81.07;101374.91;1681769;84;20981;-88
2022/08/23 06:21:22;;;;;;;5.72;3.10;;;;;;;23.23;80.92;101375.84;1661518;83;21232;-88
2022/08/23 06:23:49;;;;;;;5.25;2.27;;;;;;;23.44;80.26;101373.68;1710352;83;21019;-89
2022/08/23 06:26:23;;;;;;;6.25;2.58;;;;;;;23.54;79.51;101383.36;1703655;83;21702;-89
2022/08/23 06:28:54;;;;;;;6.25;2.72;;;;;;;23.61;78.89;101385.02;1691359;83;21044;-87
2022/08/23 06:34:14;;;;;;;6.67;3.47;;;;;;;23.61;77.69;101380.08;1709047;83;20995;-88
2022/08/23 06:36:41;;;;;;;7.45;3.30;;;;;;;23.46;77.30;101381.25;1710512;83;21433;-88
2022/08/23 06:39:13;;;;;;;12.05;4.15;;;;;;;23.31;77.46;101385.10;1679206;83;21774;-88
2022/08/23 06:41:47;;;;;;;5.17;3.80;;;;;;;23.30;77.79;101388.72;1691821;82;20980;-88
2022/08/23 06:44:16;;;;;;;6.72;3.00;;;;;;;23.37;77.52;101398.45;1698756;82;20983;-91
2022/08/23 06:46:48;;;;;;;5.62;2.67;;;;;;;23.49;77.99;101386.11;1712112;82;20980;-89
2022/08/23 06:49:18;;;;;;;6.33;3.08;;;;;;;23.76;77.60;101392.34;1703740;82;20996;-89
2022/08/23 06:51:54;;;;;;;6.97;3.83;;;;;;;23.76;77.00;101390.99;1691198;82;21818;-90
2022/08/23 06:54:25;;;;;;;9.80;3.65;;;;;;;23.79;76.61;101393.67;1656381;84;20999;-90
2022/08/23 06:56:52;;;;;;;8.53;3.60;;;;;;;23.82;76.17;101390.46;1651064;86;21040;-88
2022/08/23 06:59:19;;;;;;;9.20;3.60;;;;;;;23.83;76.34;101388.66;1650926;84;21015;-87
2022/08/23 07:01:53;;;;;;;8.30;3.52;;;;;;;23.96;76.06;101391.52;1655823;84;21278;-87
2022/08/23 07:04:23;;;;;;;8.63;3.47;;;;;;;23.97;75.62;101389.27;1653818;84;21779;-88
2022/08/23 07:06:50;;;;;;;6.10;3.30;;;;;;;24.02;75.77;101391.84;1631731;85;20992;-88
2022/08/23 07:09:17;;;;;;;8.25;3.15;;;;;;;24.22;76.08;101381.55;1652680;85;21023;-88
2022/08/23 07:11:45;;;;;;;8.05;2.77;;;;;;;24.43;75.84;101391.42;1643138;86;21104;-88
2022/08/23 07:14:15;;;;;;;8.38;2.72;;;;;;;24.57;75.56;101386.66;1649982;85;21007;-87
2022/08/23 07:16:55;;;;;;;4.75;2.50;;;;;;;24.68;74.83;101398.96;1656315;85;21740;-88
2022/08/23 07:19:23;;;;;;;14.70;4.87;;;;;;;24.41;73.67;101398.64;1700950;83;20992;-87
2022/08/23 07:21:50;;;;;;;12.23;3.92;;;;;;;24.06;74.00;101405.22;1682133;83;21039;-88
2022/08/23 07:24:17;;;;;;;9.20;3.72;;;;;;;23.94;74.39;101410.83;1668874;84;21023;-88
2022/08/23 07:26:46;;;;;;;8.58;2.95;;;;;;;23.96;74.64;101413.03;1668403;84;20992;-87
2022/08/23 07:29:13;;;;;;;10.38;4.22;;;;;;;24.04;74.78;101400.33;1671806;85;21743;-89
2022/08/23 07:32:15;;;;;;;8.43;3.50;;;;;;;24.30;74.64;101400.22;1694630;84;20999;-88
2022/08/23 07:35:21;;;;;;;12.88;7.80;;;;;;;24.33;74.17;101399.28;1682198;84;20984;-86
2022/08/23 07:37:48;;;;;;;9.55;3.95;;;;;;;24.26;73.85;101398.05;1675530;84;21015;-87
2022/08/23 07:40:18;;;;;;;9.03;3.50;;;;;;;24.09;73.73;101400.22;1648784;86;21031;-89
2022/08/23 07:42:44;;;;;;;7.47;3.87;;;;;;;24.12;74.24;101401.95;1672245;85;21744;-87
2022/08/23 07:45:12;;;;;;;12.00;5.33;;;;;;;24.31;74.16;101404.69;1692402;83;21011;-88
2022/08/23 07:47:41;;;;;;;9.98;4.25;;;;;;;24.43;74.00;101408.91;1693903;83;21035;-88
2022/08/23 07:50:09;;;;;;;12.88;4.40;;;;;;;24.49;73.66;101413.27;1696895;83;20987;-87
2022/08/23 07:52:36;;;;;;;12.78;5.00;;;;;;;24.56;73.82;101410.91;1676231;84;21044;-88
2022/08/23 07:55:04;;;;;;;12.68;4.45;;;;;;;24.74;73.64;101412.27;1698777;83;21746;-88
2022/08/23 07:57:31;;;;;;;10.08;4.65;;;;;;;24.90;73.36;101406.08;1681340;83;20960;-88
2022/08/23 07:59:58;;;;;;;11.53;4.22;;;;;;;24.92;72.95;101418.57;1659600;84;21036;-89
2022/08/23 08:02:25;;;;;;;10.03;4.40;;;;;;;24.87;72.41;101412.87;1691469;83;21004;-89
2022/08/23 08:04:52;;;;;;;8.55;4.60;;;;;;;24.84;72.75;101419.23;1698385;83;21028;-87
2022/08/23 08:07:20;;;;;;;14.68;4.47;;;;;;;24.76;72.28;101419.41;1694534;83;22552;-87
2022/08/23 08:09:47;;;;;;;13.32;4.65;;;;;;;24.52;71.95;101426.23;1684057;84;21053;-87
2022/08/23 08:12:17;;;;;;;9.18;4.60;;;;;;;24.31;72.30;101425.34;1682528;84;20996;-87
2022/08/23 08:14:47;;;;;;;11.30;4.45;;;;;;;24.22;72.58;101428.63;1697447;84;39755;-88
2022/08/23 08:17:16;;;;;;;10.40;4.62;;;;;;;24.24;72.90;101427.27;1697815;83;21007;-89
2022/08/23 08:19:43;;;;;;;8.98;4.72;;;;;;;24.45;73.26;101428.59;1698087;84;21726;-88
2022/08/23 08:22:11;;;;;;;10.38;4.47;;;;;;;24.78;73.12;101423.42;1631391;86;21059;-89
2022/08/23 08:24:39;;;;;;;10.58;4.72;;;;;;;25.00;72.31;101435.89;1655015;85;21018;-89
2022/08/23 08:27:06;;;;;;;6.75;3.70;;;;;;;25.04;71.90;101428.19;1651341;84;21004;-89
2022/08/23 08:29:33;;;;;;;11.45;4.28;;;;;;;25.17;71.72;101432.78;1664605;84;21470;-89
2022/08/23 08:32:03;;;;;;;14.20;4.40;;;;;;;25.30;71.17;101426.66;1638858;85;22557;-88
2022/08/23 08:34:29;;;;;;;11.57;5.95;;;;;;;25.29;71.10;101423.56;1659082;84;21072;-88
2022/08/23 08:36:57;;;;;;;8.33;4.05;;;;;;;25.42;70.95;101422.31;1699663;83;21027;-89
2022/08/23 08:39:31;;;;;;;8.73;4.28;;;;;;;25.51;70.63;101420.73;1700372;83;21479;-88
2022/08/23 08:42:16;;;;;;;15.88;4.95;;;;;;;25.65;70.40;101421.69;1636853;86;21153;-89
2022/08/23 08:44:57;;;;;;;13.53;5.17;;;;;;;25.78;70.33;101423.12;1643902;86;22597;-89
2022/08/23 08:47:50;;;;;;;10.85;5.17;;;;;;;25.83;69.86;101424.36;1670602;84;21022;-89
2022/08/23 08:50:36;;;;;;;11.12;4.95;;;;;;;25.82;69.55;101421.23;1658686;84;21034;-90
2022/08/23 08:53:24;;;;;;;11.55;5.25;;;;;;;25.63;69.15;101424.02;1639729;84;21208;-88
2022/08/23 08:55:59;;;;;;;12.30;5.70;;;;;;;25.43;69.45;101411.06;1698386;83;21028;-88
2022/08/23 08:58:46;;;;;;;14.10;4.90;;;;;;;25.45;69.60;101415.47;1697990;83;21729;-88
2022/08/23 09:01:19;;;;;;;11.88;4.83;;;;;;;25.49;69.61;101399.67;1655099;85;21030;-88
2022/08/23 09:03:47;;;;;;;14.87;5.22;;;;;;;25.52;69.68;101407.66;1671656;85;21034;-88
2022/08/23 09:06:28;;;;;;;11.90;5.15;;;;;;;25.60;69.24;101408.79;1663303;85;21035;-90
2022/08/23 09:09:22;;;;;;;13.70;5.58;;;;;;;25.61;69.49;101412.80;1656545;85;21002;-90
2022/08/23 09:12:11;;;;;;;8.83;4.85;;;;;;;25.50;68.73;101416.24;1650066;85;21806;-89
2022/08/23 09:14:46;;;;;;;10.40;4.67;;;;;;;25.35;69.23;101423.39;1667155;85;21015;-88
2022/08/23 09:17:55;;;;;;;14.98;5.17;;;;;;;25.31;69.42;101414.97;1672265;85;21007;-88
2022/08/23 09:20:25;;;;;;;15.20;5.28;;;;;;;25.35;69.33;101414.84;1682455;83;20971;-89
2022/08/23 09:23:18;;;;;;;18.00;6.37;;;;;;;25.34;69.58;101421.61;1675965;84;21945;-88
2022/08/23 09:25:54;;;;;;;10.63;5.07;;;;;;;25.35;69.46;101424.27;1653032;85;21780;-88
2022/08/23 09:28:21;;;;;;;12.95;6.33;;;;;;;25.32;69.17;101428.41;1700573;83;20973;-89
2022/08/23 09:30:56;;;;;;;14.35;5.83;;;;;;;25.10;69.19;101425.33;1698423;83;21074;-90
2022/08/23 09:33:42;;;;;;;17.92;6.15;;;;;;;25.02;69.58;101424.64;1701074;83;21343;-87
2022/08/23 09:36:24;;;;;;;15.20;5.97;;;;;;;24.86;69.51;101421.42;1700795;83;21029;-86
2022/08/23 09:38:57;;;;;;;12.33;6.40;;;;;;;24.78;69.82;101422.95;1723514;81;21752;-87
2022/08/23 09:41:40;;;;;;;10.38;5.72;;;;;;;24.73;70.12;101418.59;1727810;81;20967;-88
2022/08/23 09:44:07;;;;;;;10.85;5.50;;;;;;;24.90;70.49;101423.11;1707158;81;20963;-91
2022/08/23 09:46:37;;;;;;;19.52;5.90;;;;;;;25.20;70.56;101430.02;1738207;81;21431;-89
2022/08/23 09:49:28;;;;;;;14.95;6.60;;;;;;;25.27;69.99;101428.11;1734795;81;21006;-89
2022/08/23 09:52:20;;;;;;;16.10;5.92;;;;;;;25.28;69.62;101430.73;1685982;83;21809;-90
2022/08/23 09:54:57;;;;;;;17.80;6.30;;;;;;;25.20;69.56;101438.10;1718519;82;21507;-90
2022/08/23 09:57:27;;;;;;;20.15;6.10;;;;;;;25.05;69.41;101435.80;1698041;83;21116;-90
2022/08/23 09:59:55;;;;;;;14.98;6.15;;;;;;;25.13;69.84;101435.13;1703951;81;20961;-89
2022/08/23 10:02:34;;;;;;;15.93;5.22;;;;;;;25.29;69.93;101429.83;1704036;83;21019;-89
2022/08/23 10:05:17;;;;;;;8.20;5.25;;;;;;;25.57;69.55;101429.98;1724803;81;22456;-88
2022/08/23 10:07:54;;;;;;;16.60;5.72;;;;;;;25.87;69.48;101430.08;1679836;83;28720;-89
2022/08/23 10:10:45;;;;;;;10.60;5.20;;;;;;;26.08;69.03;101434.48;1675998;84;21485;-88
2022/08/23 10:13:17;;;;;;;14.60;6.05;;;;;;;26.04;68.54;101429.64;1684358;84;21113;-87
2022/08/23 10:16:18;;;;;;;16.35;6.28;;;;;;;26.20;68.18;101434.11;1670615;85;21043;-89
2022/08/23 10:19:16;;;;;;;15.43;5.67;;;;;;;26.22;67.98;101426.84;1678465;83;21786;-89
2022/08/23 10:22:12;;;;;;;11.68;5.22;;;;;;;26.31;67.59;101424.35;1697932;83;20998;-89
2022/08/23 10:25:01;;;;;;;21.77;6.83;;;;;;;26.38;67.42;101419.20;1675861;83;21014;-90
2022/08/23 10:31:01;;;;;;;14.43;5.70;;;;;;;26.56;66.84;101436.19;1664996;85;21092;-88
2022/08/23 10:33:49;;;;;;;21.95;7.92;;;;;;;26.33;66.45;101424.75;1689020;83;21751;-89
2022/08/23 10:36:24;;;;;;;20.32;7.08;;;;;;;26.27;66.31;101428.95;1682328;83;21042;-91
2022/08/23 10:39:04;;;;;;;17.07;6.95;;;;;;;26.23;66.47;101430.45;1682865;83;21567;-89
2022/08/23 10:42:00;;;;;;;18.30;6.90;;;;;;;26.35;66.51;101431.42;1682349;83;21010;-89
2022/08/23 10:44:41;;;;;;;12.15;5.97;;;;;;;26.37;65.98;101421.02;1682184;83;21689;-90
2022/08/23 10:47:38;;;;;;;11.80;6.15;;;;;;;26.46;66.17;101427.05;1692183;83;21750;-91
2022/08/23 10:50:08;;;;;;;17.17;6.37;;;;;;;26.40;65.98;101424.08;1711765;83;20974;-88
2022/08/23 10:52:57;;;;;;;18.00;5.70;;;;;;;26.41;65.79;101427.21;1711565;83;20991;-92
2022/08/23 10:56:03;;;;;;;16.00;6.37;;;;;;;26.35;65.66;101426.02;1687862;83;21049;-91
2022/08/23 10:58:38;;;;;;;16.07;6.42;;;;;;;26.32;65.64;101431.06;1680193;83;21095;-90
2022/08/23 11:01:05;;;;;;;15.85;6.22;;;;;;;26.25;65.52;101436.22;1711651;83;21884;-90
2022/08/23 11:03:49;;;;;;;16.93;7.17;;;;;;;26.21;65.72;101430.97;1711357;83;21061;-88
2022/08/23 11:06:27;;;;;;;;;;;;;;;26.15;65.61;101432.03;1693519;83;20966;-90
2022/08/23 11:09:18;;;;;;;21.82;7.00;;;;;;;26.10;65.47;101432.15;1712204;82;20637;-88
2022/08/23 11:12:14;;;;;;;15.55;7.17;;;;;;;26.07;65.75;101429.56;1705573;83;21072;-88
2022/08/23 11:15:04;;;;;;;14.85;6.65;;;;;;;26.15;65.72;101432.91;1704496;83;22779;-88
2022/08/23 11:17:57;;;;;;;23.27;9.43;;;;;;;26.28;65.40;101428.04;1706142;83;20997;-90
2022/08/23 11:20:53;;;;;;;19.32;6.83;;;;;;;26.35;65.45;101420.63;1677660;84;21469;-91
2022/08/23 11:23:50;;;;;;;18.57;7.70;;;;;;;26.43;65.01;101422.64;1735692;82;21463;-91
2022/08/23 11:26:39;;;;;;;15.48;5.90;;;;;;;26.31;65.07;101423.87;1676898;84;21050;-87
2022/08/23 11:29:14;;;;;;;18.35;6.28;;;;;;;26.32;65.06;101418.91;1681379;84;21730;-90
2022/08/23 11:32:06;;;;;;;23.07;8.08;;;;;;;26.33;65.19;101424.75;1692202;84;21018;-89
2022/08/23 11:35:07;;;;;;;15.32;5.75;;;;;;;26.36;64.95;101423.76;1687905;84;21117;-90
2022/08/23 11:37:57;;;;;;;19.00;6.40;;;;;;;26.28;64.69;101421.29;1716194;81;21027;-89
2022/08/23 11:40:54;;;;;;;17.32;6.58;;;;;;;26.29;65.15;101420.82;1678693;84;21064;-90
2022/08/23 11:43:36;;;;;;;16.45;6.72;;;;;;;26.33;64.70;101426.09;1677348;84;22529;-90
2022/08/23 11:46:40;;;;;;;22.15;7.35;;;;;;;26.26;64.50;101416.41;1689738;84;21497;-87
2022/08/23 11:49:31;;;;;;;15.08;6.05;;;;;;;26.16;64.57;101416.24;1721223;81;21493;-87
2022/08/23 11:52:49;;;;;;;19.17;7.05;;;;;;;26.12;64.62;101414.09;1722019;81;20979;-88
2022/08/23 11:55:36;;;;;;;20.17;7.08;;;;;;;26.30;64.72;101415.38;1712457;81;21069;-89
2022/08/23 11:58:25;;;;;;;9.65;5.20;;;;;;;26.42;64.60;101407.84;1732298;81;21999;-90
2022/08/23 12:01:09;;;;;;;16.05;5.97;;;;;;;26.50;64.12;101418.84;1696568;83;21615;-90
2022/08/23 12:03:57;;;;;;;12.98;5.15;;;;;;;26.48;64.43;101411.22;1726865;81;20986;-89
2022/08/23 12:06:54;;;;;;;11.73;4.80;;;;;;;26.46;64.11;101421.19;1729909;81;20955;-89
2022/08/23 12:09:30;;;;;;;15.85;5.35;;;;;;;26.37;64.53;101409.31;1728702;81;20983;-90